Time;durP1;ratioP1;P1;durP2;ratioP2;P2;SDS_P1;SDS_P2;PMS_P1;PMS_P2;Temp;Humidity;BMP_temperature;BMP_pressure;BME280_temperature;BME280_humidity;BME280_pressure;Samples;Min_cycle;Max_cycle;Signal;HPM_P1;HPM_P2
2022/06/25 00:01:18;;;;;;;1.63;1.40;;;19.70;99.90;;;;;;5031778;28;20466;-68
2022/06/25 00:03:45;;;;;;;1.47;1.37;;;19.80;99.90;;;;;;5043854;28;20221;-68
2022/06/25 00:06:13;;;;;;;3.50;1.80;;;19.70;99.90;;;;;;5050071;28;20297;-68
2022/06/25 00:08:39;;;;;;;1.60;1.50;;;19.70;99.90;;;;;;5042865;28;20565;-67
2022/06/25 00:11:06;;;;;;;4.43;1.90;;;19.70;99.90;;;;;;5040337;28;20529;-67
2022/06/25 00:13:33;;;;;;;2.20;2.00;;;19.70;99.90;;;;;;5047765;28;20493;-67
2022/06/25 00:15:59;;;;;;;1.77;1.67;;;19.70;99.90;;;;;;5042409;28;20465;-67
2022/06/25 00:18:25;;;;;;;1.67;1.57;;;19.70;99.90;;;;;;5047976;28;20466;-67
2022/06/25 00:20:51;;;;;;;2.53;2.00;;;19.70;99.90;;;;;;5047990;28;20496;-66
2022/06/25 00:23:17;;;;;;;1.90;1.80;;;19.60;99.90;;;;;;5050127;28;20516;-67
2022/06/25 00:25:43;;;;;;;1.80;1.70;;;19.60;99.90;;;;;;5044048;28;20447;-68
2022/06/25 00:28:09;;;;;;;1.50;1.40;;;19.60;99.90;;;;;;5047921;28;20722;-68
2022/06/25 00:30:37;;;;;;;3.60;1.80;;;19.60;99.90;;;;;;5031498;28;20211;-68
2022/06/25 00:33:03;;;;;;;2.70;2.00;;;19.50;99.90;;;;;;5041499;28;20278;-68
2022/06/25 00:35:29;;;;;;;4.00;2.07;;;19.60;99.90;;;;;;5031454;28;20451;-66
2022/06/25 00:37:55;;;;;;;4.17;2.00;;;19.60;99.90;;;;;;5028574;28;20870;-67
2022/06/25 00:40:21;;;;;;;4.13;1.90;;;19.60;99.90;;;;;;5044527;28;20224;-68
2022/06/25 00:42:49;;;;;;;1.70;1.60;;;19.50;99.90;;;;;;5031100;28;20294;-68
2022/06/25 00:45:15;;;;;;;1.73;1.63;;;19.50;99.90;;;;;;5031440;28;20224;-67
2022/06/25 00:47:42;;;;;;;1.90;1.80;;;19.50;99.90;;;;;;5038213;28;20442;-68
2022/06/25 00:50:08;;;;;;;2.00;1.87;;;19.50;99.90;;;;;;5028941;28;20860;-66
2022/06/25 00:52:38;;;;;;;1.80;1.70;;;19.60;99.90;;;;;;5042787;28;20223;-67
2022/06/25 00:55:10;;;;;;;4.00;1.80;;;19.60;99.90;;;;;;5047175;28;20465;-67
2022/06/25 00:57:39;;;;;;;1.97;1.67;;;19.50;99.90;;;;;;5022271;28;20454;-68
2022/06/25 01:00:09;;;;;;;2.37;1.50;;;19.50;99.90;;;;;;5026179;28;20458;-68
2022/06/25 01:02:36;;;;;;;2.10;1.97;;;19.50;99.90;;;;;;5032575;28;20467;-68
2022/06/25 01:05:07;;;;;;;1.70;1.60;;;19.60;99.90;;;;;;5036692;28;20488;-67
2022/06/25 01:07:35;;;;;;;1.30;1.30;;;19.60;99.90;;;;;;5028923;28;20450;-67
2022/06/25 01:10:02;;;;;;;2.80;1.73;;;19.60;99.90;;;;;;5043523;28;21039;-68
2022/06/25 01:12:28;;;;;;;2.10;1.90;;;19.70;99.90;;;;;;5032626;28;20477;-68
2022/06/25 01:15:04;;;;;;;2.63;2.00;;;19.60;99.90;;;;;;5039479;28;20451;-68
2022/06/25 01:17:30;;;;;;;2.13;1.80;;;19.70;99.90;;;;;;5046279;28;20458;-68
2022/06/25 01:19:56;;;;;;;3.40;2.00;;;19.70;99.90;;;;;;5051867;28;20515;-68
2022/06/25 01:22:21;;;;;;;1.80;1.70;;;19.70;99.90;;;;;;5028372;28;20239;-68
2022/06/25 01:24:47;;;;;;;2.20;2.07;;;19.70;99.90;;;;;;5031790;28;20221;-68
2022/06/25 01:27:16;;;;;;;2.60;1.83;;;19.70;99.90;;;;;;5035706;28;20227;-67
2022/06/25 01:29:43;;;;;;;2.30;2.07;;;19.70;99.90;;;;;;5050587;28;20232;-68
2022/06/25 01:32:10;;;;;;;1.90;1.80;;;19.70;99.90;;;;;;5043213;28;20473;-68
2022/06/25 01:34:36;;;;;;;3.43;2.13;;;19.60;99.90;;;;;;5032634;28;20455;-68
2022/06/25 01:37:02;;;;;;;2.70;1.70;;;19.60;99.90;;;;;;5050671;28;20989;-67
2022/06/25 01:39:28;;;;;;;3.80;2.53;;;19.60;99.90;;;;;;5048394;28;20462;-68
2022/06/25 01:41:54;;;;;;;1.90;1.80;;;19.60;99.90;;;;;;5042142;28;20529;-67
2022/06/25 01:44:20;;;;;;;2.33;2.13;;;19.60;99.90;;;;;;5036004;28;20526;-69
2022/06/25 01:46:48;;;;;;;2.00;1.90;;;19.60;99.90;;;;;;5015004;28;20823;-67
2022/06/25 01:49:14;;;;;;;2.10;1.90;;;19.60;99.90;;;;;;5041180;28;20547;-68
2022/06/25 01:51:42;;;;;;;2.07;1.87;;;19.60;99.90;;;;;;5054356;28;20259;-68
2022/06/25 01:54:08;;;;;;;1.97;1.77;;;19.60;99.90;;;;;;5046197;28;20454;-67
2022/06/25 01:56:33;;;;;;;2.90;1.63;;;19.60;99.90;;;;;;5048481;28;20216;-68
2022/06/25 01:58:59;;;;;;;1.53;1.40;;;19.60;99.90;;;;;;5042294;28;20239;-68
2022/06/25 02:01:25;;;;;;;4.40;2.00;;;19.50;99.90;;;;;;5038382;28;20227;-68
2022/06/25 02:03:51;;;;;;;2.30;1.83;;;19.50;99.90;;;;;;5033108;28;20227;-68
2022/06/25 02:06:17;;;;;;;1.90;1.80;;;19.50;99.90;;;;;;5044739;28;20632;-67
2022/06/25 02:08:42;;;;;;;2.60;1.93;;;19.50;99.90;;;;;;5046575;28;20231;-68
2022/06/25 02:11:10;;;;;;;2.50;2.30;;;19.50;99.90;;;;;;5037731;28;20874;-68
2022/06/25 02:13:37;;;;;;;2.27;1.90;;;19.50;99.90;;;;;;5032706;28;20462;-68
2022/06/25 02:16:05;;;;;;;2.20;2.00;;;19.40;99.90;;;;;;5050586;28;20469;-67
2022/06/25 02:18:35;;;;;;;2.83;2.10;;;19.40;99.90;;;;;;5035544;28;20491;-67
2022/06/25 02:21:00;;;;;;;1.80;1.67;;;19.40;99.90;;;;;;5044146;28;20482;-67
2022/06/25 02:23:26;;;;;;;2.00;1.90;;;19.30;99.90;;;;;;5040282;28;20735;-68
2022/06/25 02:25:56;;;;;;;1.77;1.60;;;19.30;99.90;;;;;;5021943;28;20217;-68
2022/06/25 02:28:22;;;;;;;4.73;4.30;;;19.30;99.90;;;;;;5027965;28;20481;-69
2022/06/25 02:30:48;;;;;;;7.23;1.90;;;19.30;99.90;;;;;;5027056;28;20684;-68
2022/06/25 02:33:15;;;;;;;2.20;2.00;;;19.30;99.90;;;;;;5050236;28;20459;-68
2022/06/25 02:35:42;;;;;;;3.17;2.17;;;19.30;99.90;;;;;;5033122;28;20227;-67
2022/06/25 02:38:09;;;;;;;6.40;2.10;;;19.30;99.90;;;;;;5031384;28;20979;-68
2022/06/25 02:40:35;;;;;;;1.83;1.73;;;19.30;99.90;;;;;;5041971;28;20477;-67
2022/06/25 02:43:01;;;;;;;2.90;1.90;;;19.30;99.90;;;;;;5049956;28;20450;-68
2022/06/25 02:45:30;;;;;;;1.83;1.73;;;19.30;99.90;;;;;;5034128;28;20460;-68
2022/06/25 02:47:56;;;;;;;2.37;2.17;;;19.30;99.90;;;;;;5046620;28;20458;-68
2022/06/25 02:50:24;;;;;;;2.23;1.93;;;19.30;99.90;;;;;;5045321;28;20872;-69
2022/06/25 02:52:49;;;;;;;2.50;1.73;;;19.20;99.90;;;;;;5042514;28;20449;-68
2022/06/25 02:55:17;;;;;;;3.83;1.97;;;19.20;99.90;;;;;;5032206;28;20451;-67
2022/06/25 03:00:38;;;;;;;3.90;2.00;;;19.10;99.90;;;;;;5045883;28;21043;-68
2022/06/25 03:03:04;;;;;;;1.97;1.87;;;19.10;99.90;;;;;;5029456;28;20454;-67
2022/06/25 03:05:30;;;;;;;2.23;2.03;;;19.10;99.90;;;;;;5032717;28;20314;-68
2022/06/25 03:07:55;;;;;;;2.03;1.90;;;19.10;99.90;;;;;;5049236;28;20223;-68
2022/06/25 03:10:21;;;;;;;6.30;2.50;;;19.10;99.90;;;;;;5032063;28;20215;-68
2022/06/25 03:12:48;;;;;;;2.50;2.23;;;19.10;99.90;;;;;;5030035;28;20213;-68
2022/06/25 03:15:21;;;;;;;3.23;2.00;;;19.10;99.90;;;;;;5044644;28;20867;-68
2022/06/25 03:17:47;;;;;;;2.83;2.13;;;19.10;99.90;;;;;;5032226;28;20446;-67
2022/06/25 03:20:31;;;;;;;4.23;2.00;;;19.00;99.90;;;;;;5050719;28;20512;-68
2022/06/25 03:22:59;;;;;;;2.40;2.30;;;19.00;99.90;;;;;;5032197;28;20458;-68
2022/06/25 03:25:25;;;;;;;2.43;2.23;;;19.00;99.90;;;;;;5032899;28;20825;-68
2022/06/25 03:27:51;;;;;;;2.83;2.63;;;19.00;99.90;;;;;;5038437;28;20216;-68
2022/06/25 03:30:17;;;;;;;5.60;2.60;;;19.00;99.90;;;;;;5049516;28;20466;-68
2022/06/25 03:32:44;;;;;;;2.60;2.40;;;19.00;99.90;;;;;;5025412;28;20223;-67
2022/06/25 03:35:21;;;;;;;2.10;2.00;;;19.00;99.90;;;;;;5032432;28;20452;-68
2022/06/25 03:38:04;;;;;;;2.07;1.97;;;19.00;99.90;;;;;;5036828;28;20539;-68
2022/06/25 03:40:30;;;;;;;3.50;2.53;;;18.90;99.90;;;;;;5039731;28;20454;-68
2022/06/25 03:42:57;;;;;;;2.70;2.07;;;18.90;99.90;;;;;;5048549;28;20458;-67
2022/06/25 03:45:24;;;;;;;2.43;2.23;;;18.90;99.90;;;;;;5033969;28;20240;-67
2022/06/25 03:47:51;;;;;;;2.97;2.77;;;18.90;99.90;;;;;;5034741;28;20578;-67
2022/06/25 03:50:19;;;;;;;2.93;2.37;;;18.90;99.90;;;;;;5041577;28;20497;-67
2022/06/25 03:52:47;;;;;;;2.50;2.40;;;18.90;99.90;;;;;;5044350;28;20521;-68
2022/06/25 03:55:13;;;;;;;2.80;2.60;;;18.90;99.90;;;;;;5050091;28;20533;-66
2022/06/25 03:57:40;;;;;;;2.97;2.57;;;18.90;99.90;;;;;;5047499;28;20462;-68
2022/06/25 04:00:20;;;;;;;4.20;2.50;;;18.90;99.90;;;;;;5027658;28;20479;-68
2022/06/25 04:02:54;;;;;;;2.83;2.57;;;18.90;99.90;;;;;;5033209;28;20499;-66
2022/06/25 04:05:29;;;;;;;2.40;2.30;;;18.90;99.90;;;;;;5040230;28;20462;-68
2022/06/25 04:08:07;;;;;;;3.00;2.80;;;18.90;99.90;;;;;;5048057;28;20462;-67
2022/06/25 04:10:32;;;;;;;3.10;2.80;;;18.90;99.90;;;;;;5049964;28;20453;-67
2022/06/25 04:12:58;;;;;;;6.10;2.50;;;18.90;99.90;;;;;;5030832;28;20311;-68
2022/06/25 04:15:24;;;;;;;4.33;2.33;;;18.90;99.90;;;;;;5046157;28;20227;-67
2022/06/25 04:17:50;;;;;;;2.50;2.00;;;18.90;99.90;;;;;;5031463;28;20269;-67
2022/06/25 04:20:15;;;;;;;2.97;2.30;;;18.90;99.90;;;;;;5032360;28;20501;-68
2022/06/25 04:22:41;;;;;;;5.10;2.20;;;18.80;99.90;;;;;;5048546;28;20247;-68
2022/06/25 04:25:07;;;;;;;3.50;3.20;;;18.80;99.90;;;;;;5025435;28;20220;-68
2022/06/25 04:30:18;;;;;;;4.03;3.50;;;18.70;99.90;;;;;;5048667;28;20467;-69
2022/06/25 04:32:47;;;;;;;4.60;4.20;;;18.70;99.90;;;;;;5032068;28;20457;-67
2022/06/25 04:35:19;;;;;;;4.13;3.83;;;18.70;99.90;;;;;;5024730;28;20461;-68
2022/06/25 04:37:47;;;;;;;4.93;4.40;;;18.70;99.90;;;;;;5031466;28;20986;-66
2022/06/25 04:40:15;;;;;;;3.30;3.00;;;18.70;99.90;;;;;;5035735;28;20546;-67
2022/06/25 04:42:45;;;;;;;4.53;3.87;;;18.70;99.90;;;;;;5036275;28;20506;-68
2022/06/25 04:45:11;;;;;;;3.07;2.83;;;18.80;99.90;;;;;;5047712;28;20516;-67
2022/06/25 04:47:46;;;;;;;2.77;2.43;;;18.80;99.90;;;;;;5035431;28;20460;-68
2022/06/25 04:50:47;;;;;;;3.23;2.27;;;18.90;99.90;;;;;;4993639;28;20528;-68
2022/06/25 04:53:14;;;;;;;2.97;2.50;;;18.90;99.90;;;;;;5031985;28;20535;-68
2022/06/25 04:55:40;;;;;;;3.13;2.60;;;18.90;99.90;;;;;;5043261;28;20542;-68
2022/06/25 04:58:06;;;;;;;2.43;2.23;;;18.90;99.90;;;;;;5052164;28;20998;-69
2022/06/25 05:00:50;;;;;;;3.13;2.83;;;18.90;99.90;;;;;;5044301;28;20453;-68
2022/06/25 05:03:17;;;;;;;3.50;3.20;;;18.90;99.90;;;;;;5033011;28;20443;-68
2022/06/25 05:06:06;;;;;;;3.90;3.50;;;19.00;99.90;;;;;;5051917;28;20591;-68
2022/06/25 05:08:31;;;;;;;3.00;2.80;;;19.00;99.90;;;;;;5041966;28;20454;-68
2022/06/25 05:10:57;;;;;;;3.43;3.23;;;19.00;99.90;;;;;;5045344;28;20449;-68
2022/06/25 05:13:24;;;;;;;5.40;4.00;;;19.00;99.90;;;;;;5033401;28;20243;-68
2022/06/25 05:15:52;;;;;;;3.80;3.50;;;19.00;99.90;;;;;;5017712;28;20577;-69
2022/06/25 05:18:18;;;;;;;4.40;3.13;;;19.10;99.90;;;;;;5050307;28;20453;-68
2022/06/25 05:20:44;;;;;;;3.20;2.97;;;19.10;99.90;;;;;;5051751;28;20534;-68
2022/06/25 05:23:12;;;;;;;4.40;4.00;;;19.10;99.90;;;;;;5051979;28;20488;-68
2022/06/25 05:25:39;;;;;;;5.63;4.70;;;19.20;99.90;;;;;;5035717;28;20450;-68
2022/06/25 05:28:05;;;;;;;5.87;5.10;;;19.20;99.90;;;;;;5047195;28;20457;-68
2022/06/25 05:30:32;;;;;;;6.80;4.83;;;19.20;99.90;;;;;;5034119;28;20458;-68
2022/06/25 05:32:58;;;;;;;6.67;5.97;;;19.20;99.90;;;;;;5043849;28;21011;-67
2022/06/25 05:35:25;;;;;;;9.20;6.37;;;19.20;99.90;;;;;;5049631;28;20962;-68
2022/06/25 05:37:50;;;;;;;6.93;6.23;;;19.30;99.90;;;;;;5047510;28;20447;-66
2022/06/25 05:40:17;;;;;;;10.00;6.30;;;19.30;99.90;;;;;;5032909;28;20458;-68
2022/06/25 05:42:43;;;;;;;5.80;5.30;;;19.40;99.90;;;;;;5050204;28;20212;-68
2022/06/25 05:45:10;;;;;;;7.13;6.43;;;19.40;99.90;;;;;;5040578;28;20499;-69
2022/06/25 05:47:36;;;;;;;8.07;6.80;;;19.40;99.90;;;;;;5021168;28;20825;-68
2022/06/25 05:50:02;;;;;;;7.77;6.73;;;19.40;99.90;;;;;;5043772;28;20519;-68
2022/06/25 05:52:28;;;;;;;7.93;7.13;;;19.40;99.90;;;;;;5042158;28;20967;-68
2022/06/25 05:54:53;;;;;;;7.27;6.53;;;19.40;99.90;;;;;;5050288;28;20453;-68
2022/06/25 05:57:19;;;;;;;10.77;7.83;;;19.30;99.90;;;;;;5051100;28;20236;-67
2022/06/25 05:59:45;;;;;;;9.33;7.80;;;19.30;99.90;;;;;;5050032;28;20243;-68
2022/06/25 06:02:11;;;;;;;8.40;7.57;;;19.30;99.90;;;;;;5051744;28;20219;-67
2022/06/25 06:04:37;;;;;;;8.80;7.90;;;19.30;99.90;;;;;;5040871;28;20454;-67
2022/06/25 06:07:03;;;;;;;9.43;7.80;;;19.30;99.90;;;;;;5044466;28;20298;-68
2022/06/25 06:09:30;;;;;;;9.67;8.23;;;19.30;99.90;;;;;;5044535;28;20231;-67
2022/06/25 06:11:56;;;;;;;9.03;8.13;;;19.30;99.90;;;;;;5030598;28;20868;-66
2022/06/25 06:14:25;;;;;;;8.17;7.37;;;19.40;99.90;;;;;;5048651;28;20797;-68
2022/06/25 06:16:51;;;;;;;7.93;7.13;;;19.40;99.90;;;;;;5036807;28;20451;-68
2022/06/25 06:19:16;;;;;;;8.13;7.30;;;19.50;99.90;;;;;;5040694;28;20473;-68
2022/06/25 06:21:42;;;;;;;14.40;8.30;;;19.50;99.90;;;;;;5031338;28;20958;-68
2022/06/25 06:24:08;;;;;;;8.67;7.77;;;19.60;99.90;;;;;;5047795;28;20711;-68
2022/06/25 06:26:34;;;;;;;8.80;7.80;;;19.60;99.90;;;;;;5031197;28;20696;-67
2022/06/25 06:29:00;;;;;;;9.10;8.10;;;19.60;99.90;;;;;;5035877;28;20259;-68
2022/06/25 06:31:26;;;;;;;9.33;8.43;;;19.60;99.90;;;;;;5031503;28;20479;-68
2022/06/25 06:33:52;;;;;;;9.83;7.90;;;19.60;99.90;;;;;;5046329;28;20230;-68
2022/06/25 06:36:17;;;;;;;15.40;7.07;;;19.70;99.90;;;;;;5035658;28;20231;-68
2022/06/25 06:38:43;;;;;;;9.23;7.40;;;19.70;99.90;;;;;;5029263;28;20278;-67
2022/06/25 06:41:09;;;;;;;7.73;6.93;;;19.80;99.90;;;;;;5041565;28;20275;-68
2022/06/25 06:43:36;;;;;;;7.90;7.20;;;19.80;99.90;;;;;;5042687;28;20231;-67
2022/06/25 06:46:03;;;;;;;8.70;7.67;;;19.90;99.90;;;;;;5044942;28;20285;-68
2022/06/25 06:48:28;;;;;;;8.93;7.77;;;19.90;99.90;;;;;;5038199;28;20486;-68
2022/06/25 06:50:54;;;;;;;8.60;7.60;;;19.90;99.90;;;;;;5053628;28;20288;-68
2022/06/25 06:53:21;;;;;;;7.90;6.70;;;19.90;99.90;;;;;;5044991;28;20781;-68
2022/06/25 06:55:47;;;;;;;11.30;7.00;;;19.90;99.90;;;;;;5034029;28;20655;-68
2022/06/25 06:58:13;;;;;;;8.40;7.30;;;20.00;99.90;;;;;;5042333;28;20990;-67
2022/06/25 07:00:39;;;;;;;7.90;7.17;;;20.00;99.90;;;;;;5038768;28;20458;-68
2022/06/25 07:03:05;;;;;;;12.43;7.50;;;20.10;99.90;;;;;;5030415;28;20223;-68
2022/06/25 07:05:30;;;;;;;11.03;7.17;;;20.10;99.90;;;;;;5046296;28;20212;-69
2022/06/25 07:07:56;;;;;;;7.00;6.17;;;20.20;99.90;;;;;;5041656;28;20227;-68
2022/06/25 07:10:22;;;;;;;8.50;7.60;;;20.20;99.90;;;;;;5039955;28;20232;-69
2022/06/25 07:12:48;;;;;;;8.93;6.80;;;20.30;99.90;;;;;;5039910;28;20228;-68
2022/06/25 07:15:14;;;;;;;6.97;6.33;;;20.40;99.90;;;;;;5049275;28;20612;-69
2022/06/25 07:17:40;;;;;;;7.57;6.97;;;20.50;99.90;;;;;;5048567;28;21053;-69
2022/06/25 07:20:06;;;;;;;6.30;5.77;;;20.60;99.90;;;;;;5049389;28;20223;-68
2022/06/25 07:22:32;;;;;;;17.67;6.97;;;20.70;99.90;;;;;;5031225;28;20217;-69
2022/06/25 07:24:58;;;;;;;7.20;6.50;;;20.80;99.90;;;;;;5041923;28;20562;-68
2022/06/25 07:27:24;;;;;;;6.93;6.30;;;20.90;99.90;;;;;;5048241;28;21057;-68
2022/06/25 07:29:50;;;;;;;7.40;6.60;;;21.00;99.90;;;;;;5043688;28;20225;-68
2022/06/25 07:32:15;;;;;;;6.77;5.97;;;21.10;99.90;;;;;;5038209;28;20228;-68
2022/06/25 07:34:41;;;;;;;8.17;6.67;;;21.20;99.90;;;;;;5039599;28;20242;-69
2022/06/25 07:37:07;;;;;;;8.27;7.10;;;21.30;99.90;;;;;;5032184;28;20229;-68
2022/06/25 07:39:33;;;;;;;7.60;6.90;;;21.40;99.90;;;;;;5039430;28;20242;-68
2022/06/25 07:41:58;;;;;;;6.70;6.10;;;21.40;99.90;;;;;;5043049;28;20268;-68
2022/06/25 07:44:24;;;;;;;6.23;5.53;;;21.40;99.90;;;;;;5055220;28;20250;-68
2022/06/25 07:46:50;;;;;;;6.87;6.27;;;21.40;99.90;;;;;;5049544;28;20223;-68
2022/06/25 07:49:15;;;;;;;10.73;7.13;;;21.50;99.90;;;;;;5030638;28;20231;-68
2022/06/25 07:51:56;;;;;;;7.00;6.30;;;21.60;99.90;;;;;;5045058;28;20216;-67
2022/06/25 07:54:23;;;;;;;7.60;6.90;;;21.70;99.90;;;;;;5037119;28;20238;-69
2022/06/25 07:56:49;;;;;;;12.73;7.00;;;21.80;99.90;;;;;;5044937;28;20454;-68
2022/06/25 07:59:15;;;;;;;6.97;6.37;;;21.80;99.90;;;;;;5038221;28;20458;-69
2022/06/25 08:01:41;;;;;;;8.43;7.63;;;21.90;99.90;;;;;;5024317;28;20243;-68
2022/06/25 08:04:06;;;;;;;6.90;6.30;;;22.10;99.90;;;;;;5048926;28;20584;-68
2022/06/25 08:06:34;;;;;;;9.90;6.87;;;22.10;99.90;;;;;;5048552;28;20286;-68
2022/06/25 08:09:01;;;;;;;7.20;6.30;;;22.20;99.90;;;;;;5044558;28;20607;-68
2022/06/25 08:11:27;;;;;;;6.93;6.33;;;22.30;99.90;;;;;;5038578;28;20595;-69
2022/06/25 08:13:52;;;;;;;8.20;6.33;;;22.40;99.90;;;;;;5037704;28;21231;-68
2022/06/25 08:16:18;;;;;;;8.07;5.90;;;22.40;99.90;;;;;;5044243;28;20227;-68
2022/06/25 08:18:44;;;;;;;6.33;5.83;;;22.50;99.90;;;;;;5040089;28;20223;-68
2022/06/25 08:21:09;;;;;;;7.20;6.23;;;22.50;99.90;;;;;;5033839;28;20227;-68
2022/06/25 08:23:35;;;;;;;6.07;5.57;;;22.60;99.90;;;;;;5043563;28;20302;-68
2022/06/25 08:26:01;;;;;;;6.40;5.80;;;22.60;99.90;;;;;;5029285;28;20227;-69
2022/06/25 08:28:27;;;;;;;6.73;6.13;;;22.60;99.90;;;;;;5025344;28;20242;-69
2022/06/25 08:30:52;;;;;;;9.97;6.10;;;22.60;99.90;;;;;;5048842;28;20251;-69
2022/06/25 08:33:18;;;;;;;7.03;6.20;;;22.70;99.90;;;;;;5041815;28;20216;-69
2022/06/25 08:35:44;;;;;;;6.60;6.00;;;22.70;99.90;;;;;;5032969;28;20222;-69
2022/06/25 08:38:09;;;;;;;6.07;5.47;;;22.70;99.90;;;;;;5051124;28;20626;-69
2022/06/25 08:40:37;;;;;;;6.80;5.63;;;22.80;99.90;;;;;;5051421;28;20211;-68
2022/06/25 08:43:04;;;;;;;5.93;5.43;;;22.70;99.90;;;;;;5052947;28;20219;-68
2022/06/25 08:45:30;;;;;;;6.57;5.83;;;22.70;99.90;;;;;;5051737;28;20587;-70
2022/06/25 08:48:00;;;;;;;5.93;5.43;;;22.70;99.90;;;;;;5052952;28;20458;-69
2022/06/25 08:50:25;;;;;;;5.97;5.57;;;22.80;99.90;;;;;;5043355;28;20763;-70
2022/06/25 08:52:54;;;;;;;7.37;5.70;;;22.80;99.90;;;;;;5044820;28;20450;-69
2022/06/25 08:55:36;;;;;;;6.27;5.77;;;22.80;99.90;;;;;;5047363;28;20230;-69
2022/06/25 08:58:03;;;;;;;6.10;5.60;;;22.80;99.90;;;;;;5042728;28;20449;-69
2022/06/25 09:00:30;;;;;;;6.17;5.67;;;22.90;99.90;;;;;;5041550;28;20500;-69
2022/06/25 09:02:57;;;;;;;5.70;5.30;;;23.00;99.90;;;;;;5052868;28;20560;-69
2022/06/25 09:05:37;;;;;;;6.70;5.30;;;23.00;99.90;;;;;;5034060;28;20453;-70
2022/06/25 09:08:05;;;;;;;6.30;5.70;;;23.10;99.90;;;;;;5050409;28;21005;-68
2022/06/25 09:10:32;;;;;;;5.30;5.00;;;23.10;99.90;;;;;;5034655;28;20599;-69
2022/06/25 09:13:06;;;;;;;10.20;6.13;;;23.20;99.90;;;;;;5034900;28;21005;-68
2022/06/25 09:15:42;;;;;;;5.90;5.33;;;23.30;99.90;;;;;;5040995;28;20987;-69
2022/06/25 09:18:11;;;;;;;5.37;4.97;;;23.40;99.90;;;;;;5040685;28;20812;-69
2022/06/25 09:20:59;;;;;;;7.43;5.70;;;23.50;99.90;;;;;;5043611;28;20512;-70
2022/06/25 09:23:29;;;;;;;5.90;5.50;;;23.60;99.90;;;;;;5041628;28;20461;-69
2022/06/25 09:26:07;;;;;;;5.90;5.40;;;23.60;99.90;;;;;;5047846;28;21077;-70
2022/06/25 09:28:38;;;;;;;4.70;4.40;;;23.70;99.90;;;;;;5037747;28;20561;-69
2022/06/25 09:31:04;;;;;;;5.90;5.43;;;23.60;99.90;;;;;;5017931;28;20461;-68
2022/06/25 09:33:32;;;;;;;5.20;4.80;;;23.70;99.90;;;;;;5021394;28;21051;-68
2022/06/25 09:35:59;;;;;;;6.87;5.00;;;23.70;99.90;;;;;;5039260;28;20453;-68
2022/06/25 09:38:26;;;;;;;8.20;4.93;;;23.80;99.90;;;;;;5042384;28;20481;-69
2022/06/25 09:40:59;;;;;;;6.00;5.53;;;23.70;99.90;;;;;;5035602;28;20465;-70
2022/06/25 09:43:34;;;;;;;5.63;5.20;;;23.80;99.90;;;;;;5044758;28;20501;-69
2022/06/25 09:46:04;;;;;;;5.33;4.73;;;24.10;99.90;;;;;;5039424;28;20553;-70
2022/06/25 09:48:31;;;;;;;4.97;4.60;;;24.30;99.90;;;;;;5044891;28;20538;-70
2022/06/25 09:51:13;;;;;;;5.17;4.67;;;24.30;99.90;;;;;;5044372;28;20461;-69
2022/06/25 09:53:52;;;;;;;4.93;4.63;;;24.50;99.90;;;;;;5038639;28;21022;-70
2022/06/25 09:56:23;;;;;;;4.97;4.60;;;24.60;99.90;;;;;;5048619;28;20457;-70
2022/06/25 09:58:50;;;;;;;5.23;4.93;;;24.70;99.90;;;;;;5049524;28;20826;-69
2022/06/25 10:01:18;;;;;;;5.50;5.10;;;24.70;99.90;;;;;;5050060;28;20607;-69
2022/06/25 10:03:45;;;;;;;4.53;4.13;;;24.80;99.90;;;;;;5047170;28;20455;-69
2022/06/25 10:06:16;;;;;;;4.97;4.57;;;24.80;99.90;;;;;;5047000;28;20457;-68
2022/06/25 10:09:02;;;;;;;5.67;4.57;;;24.80;99.90;;;;;;5026856;28;20458;-71
2022/06/25 10:11:30;;;;;;;6.83;5.53;;;24.80;99.90;;;;;;5048000;28;21080;-70
2022/06/25 10:13:57;;;;;;;4.80;4.40;;;24.90;99.90;;;;;;5035290;28;20465;-69
2022/06/25 10:16:25;;;;;;;4.60;4.30;;;25.00;99.90;;;;;;5042363;28;20465;-71
2022/06/25 10:18:51;;;;;;;4.53;4.23;;;25.00;99.90;;;;;;5032198;28;20450;-68
2022/06/25 10:21:19;;;;;;;5.20;4.73;;;24.90;99.90;;;;;;5040967;28;20460;-69
2022/06/25 10:23:47;;;;;;;4.73;4.43;;;24.90;99.90;;;;;;5033154;28;20835;-70
2022/06/25 10:26:14;;;;;;;4.73;4.20;;;24.80;99.90;;;;;;5042219;28;20450;-69
2022/06/25 10:28:41;;;;;;;5.73;4.70;;;24.70;99.90;;;;;;5044572;28;20481;-70
2022/06/25 10:31:15;;;;;;;5.10;4.70;;;24.60;99.90;;;;;;5025580;28;20454;-70
2022/06/25 10:33:58;;;;;;;5.73;5.07;;;24.70;99.90;;;;;;5035842;28;20441;-70
2022/06/25 10:36:47;;;;;;;4.80;4.50;;;24.80;99.90;;;;;;5028819;28;20830;-70
2022/06/25 10:39:22;;;;;;;4.50;4.20;;;25.00;99.90;;;;;;5031791;28;20843;-70
2022/06/25 10:45:07;;;;;;;4.00;3.70;;;25.20;99.90;;;;;;5046273;28;20453;-70
2022/06/25 10:47:46;;;;;;;3.90;3.70;;;25.40;99.90;;;;;;5054220;28;20469;-69
2022/06/25 10:50:21;;;;;;;3.63;3.40;;;25.40;99.90;;;;;;5020682;28;20466;-69
2022/06/25 10:53:05;;;;;;;3.70;3.50;;;25.50;99.90;;;;;;5015937;28;20791;-70
2022/06/25 10:55:38;;;;;;;4.13;3.83;;;25.50;99.90;;;;;;5041841;28;20499;-68
2022/06/25 10:58:16;;;;;;;4.00;3.17;;;25.60;99.90;;;;;;5057620;28;20489;-70
2022/06/25 11:00:49;;;;;;;3.67;3.37;;;25.60;99.90;;;;;;5035920;28;20446;-70
2022/06/25 11:03:16;;;;;;;4.77;3.07;;;25.70;99.90;;;;;;5049364;28;20461;-70
2022/06/25 11:05:45;;;;;;;3.73;3.43;;;25.70;99.90;;;;;;5048351;28;20480;-69
2022/06/25 11:08:12;;;;;;;5.20;3.97;;;25.80;99.90;;;;;;5038776;28;20468;-70
2022/06/25 11:10:39;;;;;;;3.40;3.20;;;25.90;99.90;;;;;;5047849;28;20485;-70
2022/06/25 11:13:05;;;;;;;3.83;3.47;;;26.00;99.90;;;;;;5050282;28;20497;-70
2022/06/25 11:15:57;;;;;;;3.50;3.30;;;26.00;99.90;;;;;;5033023;28;20553;-70
2022/06/25 11:18:23;;;;;;;3.70;3.50;;;26.10;99.90;;;;;;5042646;28;20525;-70
2022/06/25 11:20:49;;;;;;;4.03;3.63;;;26.10;99.90;;;;;;5032461;28;21011;-69
2022/06/25 11:23:16;;;;;;;3.20;3.00;;;26.10;99.60;;;;;;5048977;28;20537;-71
2022/06/25 11:28:48;;;;;;;2.33;2.23;;;26.40;99.60;;;;;;5042834;28;20985;-72
2022/06/25 11:31:24;;;;;;;2.60;2.50;;;26.50;99.20;;;;;;5037991;28;20488;-71
2022/06/25 11:33:51;;;;;;;2.37;2.17;;;26.70;99.00;;;;;;5051670;28;20453;-69
2022/06/25 11:36:18;;;;;;;2.87;2.67;;;26.80;99.30;;;;;;5057504;28;20457;-69
2022/06/25 11:38:50;;;;;;;2.93;2.73;;;26.90;99.70;;;;;;5049741;28;20449;-69
2022/06/25 11:41:26;;;;;;;3.00;2.80;;;27.00;99.20;;;;;;5040258;28;20513;-69
2022/06/25 11:43:52;;;;;;;2.90;2.70;;;27.10;99.40;;;;;;5041727;28;20456;-69
2022/06/25 11:46:19;;;;;;;2.73;2.60;;;27.20;98.50;;;;;;5032776;28;20475;-69
2022/06/25 11:48:49;;;;;;;3.07;2.77;;;27.20;98.00;;;;;;5044360;28;20996;-69
2022/06/25 11:51:25;;;;;;;2.80;2.67;;;27.10;97.80;;;;;;5017417;28;20987;-69
2022/06/25 11:53:53;;;;;;;2.63;2.47;;;27.20;97.10;;;;;;5037463;28;20218;-69
2022/06/25 11:56:18;;;;;;;2.40;2.30;;;27.20;97.40;;;;;;5028796;28;20228;-69
2022/06/25 11:58:45;;;;;;;4.27;2.37;;;27.30;97.60;;;;;;5044576;28;20449;-68
2022/06/25 12:01:11;;;;;;;2.40;2.30;;;27.30;96.80;;;;;;5040308;28;20221;-69
2022/06/25 12:03:37;;;;;;;2.60;2.50;;;27.30;96.60;;;;;;5043623;28;20450;-69
2022/06/25 12:06:04;;;;;;;2.77;2.63;;;27.20;96.50;;;;;;5044568;28;20454;-67
2022/06/25 12:08:30;;;;;;;2.70;2.57;;;27.20;96.10;;;;;;5039446;28;20231;-69
2022/06/25 12:10:58;;;;;;;3.93;2.60;;;27.20;96.20;;;;;;5028606;28;20453;-69
2022/06/25 12:13:29;;;;;;;3.00;2.80;;;27.20;96.10;;;;;;5033520;28;20457;-70
2022/06/25 12:15:59;;;;;;;2.67;2.47;;;27.20;96.20;;;;;;5035253;28;20863;-68
2022/06/25 12:18:42;;;;;;;2.37;2.27;;;27.20;96.00;;;;;;5040417;28;21026;-69
2022/06/25 12:21:16;;;;;;;4.57;2.57;;;27.30;96.80;;;;;;5047669;28;20990;-69
2022/06/25 12:23:54;;;;;;;3.03;2.83;;;27.40;96.70;;;;;;5039872;28;20496;-69
2022/06/25 12:26:34;;;;;;;4.70;2.20;;;27.50;96.10;;;;;;5031286;28;20443;-69
2022/06/25 12:29:10;;;;;;;2.70;2.50;;;27.70;96.40;;;;;;5046983;28;20233;-69
2022/06/25 12:31:36;;;;;;;3.13;2.78;;;27.70;96.00;;;;;;5035258;28;20236;-69
2022/06/25 12:34:06;;;;;;;2.40;2.30;;;27.70;95.60;;;;;;5047736;28;20245;-67
2022/06/25 12:36:39;;;;;;;2.67;2.50;;;27.70;95.70;;;;;;5046867;28;20713;-69
2022/06/25 12:39:29;;;;;;;2.57;2.37;;;27.70;95.50;;;;;;5042427;28;20229;-68
2022/06/25 12:41:55;;;;;;;2.38;2.28;;;27.70;95.20;;;;;;5044184;28;20681;-69
2022/06/25 12:44:21;;;;;;;5.13;3.10;;;27.80;94.70;;;;;;5043721;28;20228;-70
2022/06/25 12:47:01;;;;;;;2.50;2.30;;;27.90;95.10;;;;;;5025381;28;20226;-69
2022/06/25 12:49:50;;;;;;;1.90;1.80;;;27.90;94.30;;;;;;5040843;28;20640;-69
2022/06/25 12:52:24;;;;;;;2.40;2.30;;;28.10;94.80;;;;;;5047454;28;20230;-69
2022/06/25 12:54:53;;;;;;;2.13;2.03;;;28.30;93.70;;;;;;5046602;28;20721;-70
2022/06/25 12:57:26;;;;;;;2.67;2.47;;;28.40;93.70;;;;;;5045867;28;20309;-67
2022/06/25 12:59:53;;;;;;;3.08;2.22;;;28.40;93.50;;;;;;5039585;28;20227;-68
2022/06/25 13:02:19;;;;;;;2.47;2.25;;;28.40;92.80;;;;;;5032746;28;20286;-69
2022/06/25 13:04:45;;;;;;;2.28;2.17;;;28.50;93.60;;;;;;5043539;28;20225;-69